createdAt,value
2017-03-23T00:00:06.507Z,6.99
2017-03-23T00:01:07.122Z,6.91
2017-03-23T00:02:07.741Z,7.00
2017-03-23T00:03:08.344Z,6.86
2017-03-23T00:04:08.959Z,6.82
2017-03-23T00:05:09.570Z,6.99
2017-03-23T00:06:10.185Z,6.88
2017-03-23T00:07:11.006Z,6.91
2017-03-23T00:08:11.633Z,6.84
2017-03-23T00:09:12.248Z,6.88
2017-03-23T00:10:12.858Z,6.86
2017-03-23T00:11:13.476Z,6.81
2017-03-23T00:12:14.100Z,6.86
2017-03-23T00:13:14.703Z,6.92
2017-03-23T00:14:15.312Z,6.84
2017-03-23T00:15:15.931Z,6.86
2017-03-23T00:16:16.546Z,6.82
2017-03-23T00:17:17.154Z,6.81
2017-03-23T00:18:17.771Z,6.76
2017-03-23T00:19:18.385Z,6.82
2017-03-23T00:20:19.006Z,6.73
2017-03-23T00:21:19.622Z,6.70
2017-03-23T00:22:20.225Z,6.82
2017-03-23T00:23:20.838Z,6.73
2017-03-23T00:24:21.461Z,6.78
2017-03-23T00:25:22.074Z,6.81
2017-03-23T00:26:22.680Z,6.82
2017-03-23T00:27:23.303Z,6.70
2017-03-23T00:28:23.905Z,6.84
2017-03-23T00:29:24.523Z,6.78
2017-03-23T00:30:25.133Z,6.79
2017-03-23T00:31:25.757Z,6.70
2017-03-23T00:32:26.358Z,6.73
2017-03-23T00:33:26.989Z,6.84
2017-03-23T00:34:27.581Z,6.79
2017-03-23T00:35:28.232Z,6.76
2017-03-23T00:36:28.809Z,6.73
2017-03-23T00:37:29.407Z,6.73
2017-03-23T00:38:30.034Z,6.82
2017-03-23T00:39:30.638Z,6.76
2017-03-23T00:40:31.260Z,6.78
2017-03-23T00:41:31.876Z,6.70
2017-03-23T00:42:32.479Z,6.71
2017-03-23T00:43:33.085Z,6.67
2017-03-23T00:44:33.705Z,6.66
2017-03-23T00:45:34.321Z,6.63
2017-03-23T00:46:34.925Z,6.64
2017-03-23T00:47:35.542Z,6.71
2017-03-23T00:48:36.166Z,6.68
2017-03-23T00:49:36.770Z,6.63
2017-03-23T00:50:37.381Z,6.75
2017-03-23T00:51:37.998Z,6.64
2017-03-23T00:52:38.599Z,6.68
2017-03-23T00:53:39.215Z,6.71
2017-03-23T00:54:39.826Z,6.70
2017-03-23T00:55:40.451Z,6.68
2017-03-23T00:56:41.056Z,6.70
2017-03-23T00:57:41.657Z,6.64
2017-03-23T00:58:42.271Z,6.68
2017-03-23T00:59:42.886Z,6.71
2017-03-23T01:00:43.494Z,6.71
2017-03-23T01:01:44.099Z,6.73
2017-03-23T01:02:44.717Z,6.66
2017-03-23T01:03:45.324Z,6.66
2017-03-23T01:04:45.939Z,6.61
2017-03-23T01:05:46.598Z,6.68
2017-03-23T01:06:47.165Z,6.66
2017-03-23T01:07:47.783Z,6.67
2017-03-23T01:08:48.378Z,6.66
2017-03-23T01:09:48.998Z,6.67
2017-03-23T01:10:49.604Z,6.63
2017-03-23T01:11:50.219Z,6.68
2017-03-23T01:12:50.833Z,6.68
2017-03-23T01:13:51.462Z,6.64
2017-03-23T01:14:52.062Z,6.68
2017-03-23T01:15:52.677Z,6.71
2017-03-23T01:16:53.297Z,6.73
2017-03-23T01:17:53.914Z,6.78
2017-03-23T01:18:54.519Z,6.66
2017-03-23T01:19:55.130Z,6.79
2017-03-23T01:20:55.729Z,6.63
2017-03-23T01:21:56.544Z,6.70
2017-03-23T01:22:57.165Z,6.66
2017-03-23T01:23:57.778Z,6.70
2017-03-23T01:24:58.390Z,6.66
2017-03-23T01:25:59.014Z,6.63
2017-03-23T01:26:59.613Z,6.68
2017-03-23T01:28:00.232Z,6.61
2017-03-23T01:29:00.838Z,6.66
2017-03-23T01:30:01.459Z,6.66
2017-03-23T01:31:02.068Z,6.66
2017-03-23T01:32:02.683Z,6.57
2017-03-23T01:33:03.285Z,6.71
2017-03-23T01:34:03.907Z,6.64
2017-03-23T01:35:04.522Z,6.63
2017-03-23T01:36:05.136Z,6.68
2017-03-23T01:37:05.750Z,6.67
2017-03-23T01:38:06.374Z,6.63
2017-03-23T01:39:06.973Z,6.66
2017-03-23T01:40:07.592Z,6.60
2017-03-23T01:41:08.206Z,6.61
2017-03-23T01:42:08.909Z,6.58
2017-03-23T01:43:09.526Z,6.63
2017-03-23T01:44:10.150Z,6.60
2017-03-23T01:45:10.770Z,6.55
2017-03-23T01:46:11.376Z,6.50
2017-03-23T01:47:12.232Z,6.53
2017-03-23T01:48:12.856Z,6.46
2017-03-23T01:49:13.466Z,6.46
2017-03-23T01:50:14.070Z,6.42
2017-03-23T01:51:14.668Z,6.49
2017-03-23T01:52:15.265Z,6.45
2017-03-23T01:53:15.900Z,6.43
2017-03-23T01:54:16.701Z,6.38
2017-03-23T01:55:17.315Z,6.40
2017-03-23T01:56:17.924Z,6.38
2017-03-23T01:57:18.540Z,6.22
2017-03-23T01:58:19.153Z,6.13
2017-03-23T01:59:19.774Z,6.16
2017-03-23T02:00:20.369Z,6.09
2017-03-23T02:01:20.984Z,6.09
2017-03-23T02:02:21.838Z,6.02
2017-03-23T02:03:22.462Z,6.08
2017-03-23T02:04:23.068Z,5.99
2017-03-23T02:05:23.688Z,6.02
2017-03-23T02:06:24.294Z,5.96
2017-03-23T02:07:24.907Z,5.86
2017-03-23T02:08:25.517Z,5.96
2017-03-23T02:09:26.130Z,5.96
2017-03-23T02:10:26.744Z,5.90
2017-03-23T02:11:27.344Z,5.83
2017-03-23T02:12:27.957Z,5.76
2017-03-23T02:13:28.576Z,5.75
2017-03-23T02:14:29.197Z,5.76
2017-03-23T02:15:29.822Z,5.68
2017-03-23T02:16:30.425Z,5.58
2017-03-23T02:17:31.033Z,5.58
2017-03-23T02:18:31.650Z,5.60
2017-03-23T02:19:32.272Z,5.66
2017-03-23T02:20:32.875Z,5.51
2017-03-23T02:21:33.491Z,5.44
2017-03-23T02:22:34.094Z,5.45
2017-03-23T02:23:34.726Z,5.40
2017-03-23T02:24:35.338Z,5.36
2017-03-23T02:25:35.950Z,5.39
2017-03-23T02:26:36.560Z,5.33
2017-03-23T02:27:37.159Z,5.29
2017-03-23T02:28:37.776Z,5.27
2017-03-23T02:29:38.392Z,5.16
2017-03-23T02:30:39.007Z,5.19
2017-03-23T02:31:39.618Z,5.14
2017-03-23T02:32:40.223Z,5.14
2017-03-23T02:33:40.834Z,5.09
2017-03-23T02:34:41.452Z,5.03
2017-03-23T02:35:42.067Z,5.08
2017-03-23T02:36:42.679Z,5.01
2017-03-23T02:37:43.488Z,4.91
2017-03-23T02:38:44.103Z,4.90
2017-03-23T02:39:44.720Z,4.96
2017-03-23T02:40:45.338Z,4.86
2017-03-23T02:41:45.950Z,4.89
2017-03-23T02:42:46.563Z,4.83
2017-03-23T02:43:47.162Z,4.83
2017-03-23T02:44:47.784Z,4.72
2017-03-23T02:45:48.392Z,4.74
2017-03-23T02:46:49.013Z,4.71
2017-03-23T02:47:49.628Z,4.60
2017-03-23T02:48:50.249Z,4.60
2017-03-23T02:49:50.848Z,4.53
2017-03-23T02:50:51.459Z,4.53
2017-03-23T02:51:52.074Z,4.56
2017-03-23T02:52:52.691Z,4.54
2017-03-23T02:53:53.303Z,4.50
2017-03-23T02:54:53.914Z,4.48
2017-03-23T02:55:54.524Z,4.44
2017-03-23T02:56:55.152Z,4.45
2017-03-23T02:57:55.760Z,4.39
2017-03-23T02:58:56.366Z,4.39
2017-03-23T02:59:57.183Z,4.36
2017-03-23T03:00:57.791Z,4.31
2017-03-23T03:01:58.389Z,4.32
2017-03-23T03:02:58.999Z,4.32
2017-03-23T03:03:59.611Z,4.28
2017-03-23T03:05:00.222Z,4.31
2017-03-23T03:06:00.852Z,4.20
2017-03-23T03:07:01.665Z,4.21
2017-03-23T03:08:02.272Z,4.16
2017-03-23T03:09:02.882Z,4.13
2017-03-23T03:10:03.504Z,4.17
2017-03-23T03:11:04.105Z,4.18
2017-03-23T03:12:04.716Z,4.14
2017-03-23T03:13:05.325Z,4.13
2017-03-23T03:14:05.932Z,4.13
2017-03-23T03:15:06.549Z,4.18
2017-03-23T03:16:07.158Z,4.10
2017-03-23T03:17:07.771Z,4.08
2017-03-23T03:18:08.378Z,4.16
2017-03-23T03:19:09.004Z,4.13
2017-03-23T03:20:09.618Z,4.00
2017-03-23T03:21:10.210Z,3.98
2017-03-23T03:22:10.830Z,3.88
2017-03-23T03:23:11.449Z,4.06
2017-03-23T03:24:12.253Z,4.02
2017-03-23T03:25:12.862Z,4.06
2017-03-23T03:26:13.485Z,3.98
2017-03-23T03:27:14.096Z,3.98
2017-03-23T03:28:14.688Z,3.99
2017-03-23T03:29:15.299Z,3.87
2017-03-23T03:30:16.118Z,3.91
2017-03-23T03:31:16.739Z,3.95
2017-03-23T03:32:17.353Z,3.96
2017-03-23T03:33:17.966Z,3.90
2017-03-23T03:34:18.574Z,3.88
2017-03-23T03:35:19.192Z,3.93
2017-03-23T03:36:19.801Z,3.82
2017-03-23T03:37:20.403Z,3.88
2017-03-23T03:38:21.023Z,3.95
2017-03-23T03:39:21.632Z,3.98
2017-03-23T03:40:22.241Z,3.99
2017-03-23T03:41:22.865Z,3.93
2017-03-23T03:42:23.478Z,3.88
2017-03-23T03:43:24.080Z,3.96
2017-03-23T03:44:24.699Z,3.93
2017-03-23T03:45:25.301Z,3.90
2017-03-23T03:46:25.914Z,3.88
2017-03-23T03:47:26.529Z,3.90
2017-03-23T03:48:27.135Z,3.90
2017-03-23T03:49:27.751Z,3.93
2017-03-23T03:50:28.361Z,3.99
2017-03-23T03:51:28.981Z,4.05
2017-03-23T03:52:29.585Z,3.88
2017-03-23T03:53:30.196Z,3.91
2017-03-23T03:54:30.821Z,3.84
2017-03-23T03:55:31.418Z,3.88
2017-03-23T03:56:32.016Z,3.84
2017-03-23T03:57:32.635Z,3.84
2017-03-23T03:58:33.240Z,3.75
2017-03-23T03:59:33.852Z,3.72
2017-03-23T04:00:34.448Z,3.91
2017-03-23T04:01:35.066Z,3.73
2017-03-23T04:02:35.680Z,3.78
2017-03-23T04:03:36.286Z,3.77
2017-03-23T04:04:36.903Z,3.70
2017-03-23T04:05:37.524Z,3.75
2017-03-23T04:06:38.124Z,3.60
2017-03-23T04:07:38.733Z,3.63
2017-03-23T04:08:39.362Z,3.62
2017-03-23T04:09:39.956Z,3.63
2017-03-23T04:10:40.569Z,3.62
2017-03-23T04:11:41.186Z,3.46
2017-03-23T04:12:41.806Z,3.48
2017-03-23T04:13:42.413Z,3.48
2017-03-23T04:14:43.011Z,3.48
2017-03-23T04:15:43.622Z,3.45
2017-03-23T04:16:44.237Z,3.41
2017-03-23T04:17:44.854Z,3.37
2017-03-23T04:18:45.465Z,3.33
2017-03-23T04:19:46.069Z,3.30
2017-03-23T04:20:46.678Z,3.26
2017-03-23T04:21:47.296Z,3.25
2017-03-23T04:22:47.913Z,3.22
2017-03-23T04:23:48.521Z,3.19
2017-03-23T04:24:49.132Z,3.11
2017-03-23T04:25:49.741Z,3.14
2017-03-23T04:26:50.348Z,3.08
2017-03-23T04:27:50.991Z,3.02
2017-03-23T04:28:51.586Z,2.97
2017-03-23T04:29:52.189Z,3.05
2017-03-23T04:30:52.802Z,2.94
2017-03-23T04:31:53.408Z,3.05
2017-03-23T04:32:54.029Z,3.00
2017-03-23T04:33:54.803Z,2.94
2017-03-23T04:34:55.425Z,3.05
2017-03-23T04:35:56.035Z,2.97
2017-03-23T04:36:56.652Z,3.01
2017-03-23T04:37:57.268Z,2.93
2017-03-23T04:38:57.876Z,3.02
2017-03-23T04:39:58.688Z,2.94
2017-03-23T04:40:59.300Z,2.90
2017-03-23T04:41:59.911Z,2.90
2017-03-23T04:43:00.507Z,2.94
2017-03-23T04:44:01.122Z,2.86
2017-03-23T04:45:01.739Z,2.86
2017-03-23T04:46:02.355Z,2.84
2017-03-23T04:47:02.959Z,2.79
2017-03-23T04:48:03.568Z,2.90
2017-03-23T04:49:04.193Z,2.79
2017-03-23T04:50:04.793Z,2.73
2017-03-23T04:51:05.405Z,2.78
2017-03-23T04:52:06.000Z,2.79
2017-03-23T04:53:06.619Z,2.75
2017-03-23T04:54:07.229Z,2.82
2017-03-23T04:55:07.844Z,2.75
2017-03-23T04:56:08.468Z,2.78
2017-03-23T04:57:09.073Z,2.82
2017-03-23T04:58:09.676Z,2.69
2017-03-23T04:59:10.298Z,2.71
2017-03-23T05:00:10.903Z,2.72
2017-03-23T05:01:11.513Z,2.68
2017-03-23T05:02:12.132Z,2.72
2017-03-23T05:03:12.742Z,2.75
2017-03-23T05:04:13.601Z,2.57
2017-03-23T05:05:14.201Z,2.57
2017-03-23T05:06:14.817Z,2.65
2017-03-23T05:07:15.420Z,2.54
2017-03-23T05:08:16.046Z,2.58
2017-03-23T05:09:16.671Z,2.57
2017-03-23T05:10:17.278Z,2.57
2017-03-23T05:11:17.890Z,2.71
2017-03-23T05:12:18.504Z,2.53
2017-03-23T05:13:19.116Z,2.57
2017-03-23T05:14:19.730Z,2.54
2017-03-23T05:15:20.343Z,2.62
2017-03-23T05:16:20.956Z,2.62
2017-03-23T05:17:21.571Z,2.54
2017-03-23T05:18:22.188Z,2.57
2017-03-23T05:19:22.792Z,2.58
2017-03-23T05:20:23.410Z,2.64
2017-03-23T05:21:24.020Z,2.62
2017-03-23T05:22:24.641Z,2.62
2017-03-23T05:23:25.238Z,2.65
2017-03-23T05:24:26.077Z,2.73
2017-03-23T05:25:26.692Z,2.62
2017-03-23T05:26:27.300Z,2.64
2017-03-23T05:27:27.958Z,2.55
2017-03-23T05:28:28.752Z,2.60
2017-03-23T05:29:29.374Z,2.54
2017-03-23T05:30:29.973Z,2.55
2017-03-23T05:31:30.586Z,2.54
2017-03-23T05:32:31.406Z,2.54
2017-03-23T05:33:32.030Z,2.51
2017-03-23T05:34:32.628Z,2.44
2017-03-23T05:35:33.257Z,2.42
2017-03-23T05:36:33.864Z,2.48
2017-03-23T05:37:34.473Z,2.47
2017-03-23T05:38:35.089Z,2.47
2017-03-23T05:39:35.702Z,2.40
2017-03-23T05:40:36.324Z,2.46
2017-03-23T05:41:37.012Z,2.44
2017-03-23T05:42:37.656Z,2.54
2017-03-23T05:43:38.383Z,2.44
2017-03-23T05:44:39.010Z,2.47
2017-03-23T05:45:39.658Z,2.57
2017-03-23T05:46:40.264Z,2.58
2017-03-23T05:47:40.886Z,2.55
2017-03-23T05:48:41.492Z,2.68
2017-03-23T05:49:42.112Z,2.58
2017-03-23T05:50:42.718Z,2.76
2017-03-23T05:51:43.343Z,2.72
2017-03-23T05:52:43.953Z,2.60
2017-03-23T05:53:44.562Z,2.72
2017-03-23T05:54:45.167Z,2.69
2017-03-23T05:55:45.783Z,2.75
2017-03-23T05:56:46.389Z,2.68
2017-03-23T05:57:47.014Z,2.66
2017-03-23T05:58:47.622Z,2.87
2017-03-23T05:59:48.244Z,2.84
2017-03-23T06:00:48.840Z,2.79
2017-03-23T06:01:49.455Z,2.75
2017-03-23T06:02:50.069Z,2.79
2017-03-23T06:03:50.691Z,2.84
2017-03-23T06:04:51.298Z,2.78
2017-03-23T06:05:51.929Z,2.90
2017-03-23T06:06:52.544Z,2.94
2017-03-23T06:07:53.159Z,2.94
2017-03-23T06:08:53.774Z,2.94
2017-03-23T06:09:54.395Z,2.91
2017-03-23T06:10:54.997Z,3.02
2017-03-23T06:11:55.621Z,3.14
2017-03-23T06:12:56.237Z,3.12
2017-03-23T06:13:56.849Z,3.27
2017-03-23T06:14:57.457Z,3.33
2017-03-23T06:15:58.073Z,3.32
2017-03-23T06:16:58.689Z,3.32
2017-03-23T06:17:59.315Z,3.46
2017-03-23T06:18:59.936Z,3.52
2017-03-23T06:20:00.547Z,3.60
2017-03-23T06:21:01.172Z,3.60
2017-03-23T06:22:01.798Z,3.59
2017-03-23T06:23:02.408Z,3.67
2017-03-23T06:24:03.038Z,3.70
2017-03-23T06:25:03.682Z,3.77
2017-03-23T06:26:04.306Z,3.78
2017-03-23T06:27:04.925Z,3.77
2017-03-23T06:28:05.539Z,3.81
2017-03-23T06:29:06.148Z,3.93
2017-03-23T06:30:06.763Z,4.02
2017-03-23T06:31:07.394Z,4.08
2017-03-23T06:32:07.999Z,4.14
2017-03-23T06:33:08.627Z,4.10
2017-03-23T06:34:09.238Z,4.23
2017-03-23T06:35:10.161Z,4.31
2017-03-23T06:36:10.731Z,4.36
2017-03-23T06:37:11.345Z,4.44
2017-03-23T06:38:11.964Z,4.45
2017-03-23T06:39:12.591Z,4.53
2017-03-23T06:40:13.211Z,4.62
2017-03-23T06:41:13.827Z,4.60
2017-03-23T06:42:14.449Z,4.83
2017-03-23T06:43:15.068Z,4.77
2017-03-23T06:44:15.692Z,4.96
2017-03-23T06:45:16.323Z,5.08
2017-03-23T06:46:16.934Z,5.09
2017-03-23T06:47:17.546Z,5.22
2017-03-23T06:48:18.152Z,5.44
2017-03-23T06:49:18.779Z,5.45
2017-03-23T06:50:19.397Z,5.73
2017-03-23T06:51:20.023Z,6.01
2017-03-23T06:52:20.630Z,6.30
2017-03-23T06:53:21.260Z,6.45
2017-03-23T06:54:21.889Z,6.82
2017-03-23T06:55:22.498Z,7.02
2017-03-23T06:56:23.131Z,7.28
2017-03-23T06:57:23.761Z,7.40
2017-03-23T06:58:24.374Z,7.72
2017-03-23T06:59:25.006Z,7.98
2017-03-23T07:00:25.635Z,8.31
2017-03-23T07:01:26.250Z,8.55
2017-03-23T07:02:26.877Z,8.67
2017-03-23T07:03:27.495Z,8.95
2017-03-23T07:04:28.102Z,9.03
2017-03-23T07:05:28.739Z,9.10
2017-03-23T07:06:29.347Z,9.22
2017-03-23T07:07:29.982Z,9.26
2017-03-23T07:08:30.606Z,9.30
2017-03-23T07:09:31.220Z,9.30
2017-03-23T07:10:31.831Z,9.26
2017-03-23T07:11:32.456Z,9.32
2017-03-23T07:12:33.085Z,9.23
2017-03-23T07:13:33.710Z,9.26
2017-03-23T07:14:34.341Z,9.22
2017-03-23T07:15:34.967Z,9.28
2017-03-23T07:16:35.586Z,9.26
2017-03-23T07:17:36.209Z,9.28
2017-03-23T07:18:36.834Z,9.26
2017-03-23T07:19:37.456Z,9.30
2017-03-23T07:20:38.290Z,9.25
2017-03-23T07:21:38.905Z,9.22
2017-03-23T07:22:39.530Z,9.33
2017-03-23T07:23:40.162Z,9.30
2017-03-23T07:24:40.778Z,9.23
2017-03-23T07:25:41.412Z,9.11
2017-03-23T07:26:42.043Z,9.19
2017-03-23T07:27:42.665Z,9.26
2017-03-23T07:28:43.284Z,9.53
2017-03-23T07:29:43.914Z,9.53
2017-03-23T07:30:44.529Z,9.61
2017-03-23T07:31:45.153Z,9.84
2017-03-23T07:32:45.782Z,9.95
2017-03-23T07:33:46.401Z,10.20
2017-03-23T07:34:47.030Z,10.31
2017-03-23T07:35:47.661Z,10.26
2017-03-23T07:36:48.285Z,10.32
2017-03-23T07:37:48.911Z,10.61
2017-03-23T07:38:49.539Z,10.85
2017-03-23T07:39:50.175Z,10.83
2017-03-23T07:40:50.813Z,10.97
2017-03-23T07:41:51.441Z,11.03
2017-03-23T07:42:52.089Z,11.09
2017-03-23T07:43:52.693Z,11.16
2017-03-23T07:44:53.323Z,11.45
2017-03-23T07:45:53.951Z,11.48
2017-03-23T07:46:54.578Z,11.69
2017-03-23T07:47:55.205Z,11.84
2017-03-23T07:48:55.839Z,11.95
2017-03-23T07:49:56.471Z,11.93
2017-03-23T07:50:57.101Z,12.27
2017-03-23T07:51:57.727Z,12.32
2017-03-23T07:52:58.364Z,12.68
2017-03-23T07:53:59.003Z,12.80
2017-03-23T07:54:59.647Z,12.79
2017-03-23T07:56:00.259Z,13.00
2017-03-23T07:57:00.886Z,13.02
2017-03-23T07:58:01.516Z,13.13
2017-03-23T07:59:02.151Z,13.19
2017-03-23T08:00:02.802Z,13.41
2017-03-23T08:01:03.448Z,13.71
2017-03-23T08:02:04.072Z,13.81
2017-03-23T08:03:04.700Z,13.99
2017-03-23T08:04:05.547Z,13.96
2017-03-23T08:05:06.188Z,13.97
2017-03-23T08:06:07.083Z,14.18
2017-03-23T08:07:07.719Z,14.19
2017-03-23T08:08:08.364Z,14.17
2017-03-23T08:09:08.991Z,14.12
2017-03-23T08:10:09.637Z,14.32
2017-03-23T08:11:10.275Z,14.60
2017-03-23T08:12:10.899Z,14.72
2017-03-23T08:13:11.536Z,14.66
2017-03-23T08:14:12.180Z,14.47
2017-03-23T08:15:12.823Z,14.29
2017-03-23T08:16:13.472Z,14.17
2017-03-23T08:17:14.105Z,14.05
2017-03-23T08:18:14.745Z,14.14
2017-03-23T08:19:15.371Z,14.10
2017-03-23T08:20:16.001Z,14.14
2017-03-23T08:21:16.636Z,14.14
2017-03-23T08:22:17.278Z,14.10
2017-03-23T08:23:17.890Z,14.10
2017-03-23T08:24:18.532Z,13.68
2017-03-23T08:25:19.155Z,13.69
2017-03-23T08:26:19.800Z,13.54
2017-03-23T08:27:20.426Z,13.74
2017-03-23T08:28:21.075Z,14.08
2017-03-23T08:29:21.696Z,14.15
2017-03-23T08:30:22.335Z,14.08
2017-03-23T08:31:22.970Z,14.17
2017-03-23T08:32:23.804Z,14.25
2017-03-23T08:33:24.444Z,14.12
2017-03-23T08:34:25.081Z,14.18
2017-03-23T08:35:25.717Z,14.48
2017-03-23T08:36:26.551Z,14.60
2017-03-23T08:37:27.188Z,14.52
2017-03-23T08:38:27.930Z,14.68
2017-03-23T08:39:28.565Z,15.04
2017-03-23T08:40:29.198Z,14.85
2017-03-23T08:41:29.831Z,14.85
2017-03-23T08:42:30.469Z,15.00
2017-03-23T08:43:31.109Z,15.07
2017-03-23T08:44:31.744Z,15.49
2017-03-23T08:45:32.387Z,15.68
2017-03-23T08:46:33.027Z,15.21
2017-03-23T08:47:33.661Z,15.31
2017-03-23T08:48:34.286Z,15.49
2017-03-23T08:49:34.930Z,15.28
2017-03-23T08:50:35.563Z,14.96
2017-03-23T08:51:36.207Z,15.03
2017-03-23T08:52:36.864Z,15.00
2017-03-23T08:53:37.520Z,14.82
2017-03-23T08:54:38.115Z,15.13
2017-03-23T08:55:38.755Z,15.51
2017-03-23T08:56:39.393Z,15.77
2017-03-23T08:57:40.029Z,16.02
2017-03-23T08:58:40.669Z,15.91
2017-03-23T08:59:41.306Z,16.04
2017-03-23T09:00:41.938Z,15.91
2017-03-23T09:01:42.783Z,16.01
2017-03-23T09:02:43.420Z,16.15
2017-03-23T09:03:44.045Z,15.86
2017-03-23T09:04:44.687Z,16.07
2017-03-23T09:05:45.336Z,16.10
2017-03-23T09:06:45.970Z,16.36
2017-03-23T09:07:46.607Z,16.16
2017-03-23T09:08:47.261Z,15.82
2017-03-23T09:09:47.887Z,15.97
2017-03-23T09:10:48.536Z,15.76
2017-03-23T09:11:49.166Z,15.97
2017-03-23T09:12:49.808Z,15.97
2017-03-23T09:13:50.428Z,15.64
2017-03-23T09:14:51.069Z,15.17
2017-03-23T09:15:51.713Z,15.18
2017-03-23T09:16:52.358Z,15.55
2017-03-23T09:17:52.994Z,15.69
2017-03-23T09:18:53.636Z,15.97
2017-03-23T09:19:54.276Z,16.56
2017-03-23T09:20:54.919Z,16.66
2017-03-23T09:21:55.556Z,16.71
2017-03-23T09:22:56.198Z,16.31
2017-03-23T09:23:56.841Z,16.38
2017-03-23T09:24:57.482Z,16.42
2017-03-23T09:25:58.112Z,16.35
2017-03-23T09:26:58.941Z,16.33
2017-03-23T09:27:59.565Z,16.27
2017-03-23T09:29:00.203Z,16.02
2017-03-23T09:30:00.829Z,15.92
2017-03-23T09:31:01.461Z,16.23
2017-03-23T09:32:02.091Z,16.02
2017-03-23T09:33:02.725Z,16.12
2017-03-23T09:34:03.356Z,16.49
2017-03-23T09:35:03.998Z,16.78
2017-03-23T09:36:04.633Z,16.91
2017-03-23T09:37:05.477Z,17.15
2017-03-23T09:38:06.107Z,17.36
2017-03-23T09:39:06.744Z,17.14
2017-03-23T09:40:07.375Z,17.39
2017-03-23T09:41:08.024Z,17.64
2017-03-23T09:42:08.660Z,17.23
2017-03-23T09:43:09.300Z,17.33
2017-03-23T09:44:09.950Z,17.64
2017-03-23T09:45:10.586Z,17.27
2017-03-23T09:46:11.218Z,17.42
2017-03-23T09:47:11.839Z,17.41
2017-03-23T09:48:12.466Z,17.36
2017-03-23T09:49:13.153Z,17.23
2017-03-23T09:50:13.816Z,17.15
2017-03-23T09:51:14.447Z,17.08
2017-03-23T09:52:15.087Z,17.14
2017-03-23T09:53:15.732Z,17.27
2017-03-23T09:54:16.356Z,17.00
2017-03-23T09:55:16.995Z,17.31
2017-03-23T09:56:17.653Z,17.83
2017-03-23T09:57:18.288Z,17.79
2017-03-23T09:58:18.927Z,17.98
2017-03-23T09:59:19.563Z,18.16
2017-03-23T10:00:20.208Z,18.10
2017-03-23T10:01:20.846Z,18.58
2017-03-23T10:02:21.491Z,18.66
2017-03-23T10:03:22.313Z,18.55
2017-03-23T10:04:22.938Z,18.56
2017-03-23T10:05:23.580Z,18.66
2017-03-23T10:06:24.202Z,18.26
2017-03-23T10:07:24.841Z,18.27
2017-03-23T10:08:25.493Z,18.35
2017-03-23T10:09:26.125Z,17.93
2017-03-23T10:10:26.758Z,17.80
2017-03-23T10:11:27.403Z,17.74
2017-03-23T10:12:28.050Z,17.72
2017-03-23T10:13:28.698Z,17.95
2017-03-23T10:14:29.326Z,18.11
2017-03-23T10:15:29.963Z,18.40
2017-03-23T10:16:30.607Z,18.43
2017-03-23T10:17:31.258Z,18.47
2017-03-23T10:18:31.873Z,18.53
2017-03-23T10:19:32.518Z,18.35
2017-03-23T10:20:33.157Z,18.74
2017-03-23T10:21:33.784Z,18.69
2017-03-23T10:22:34.440Z,18.23
2017-03-23T10:23:35.067Z,18.30
2017-03-23T10:24:35.703Z,18.69
2017-03-23T10:25:36.342Z,18.81
2017-03-23T10:26:36.978Z,19.02
2017-03-23T10:27:37.619Z,19.27
2017-03-23T10:28:38.255Z,19.51
2017-03-23T10:29:38.887Z,19.87
2017-03-23T10:30:39.510Z,19.81
2017-03-23T10:31:40.150Z,20.10
2017-03-23T10:32:40.782Z,20.32
2017-03-23T10:33:41.437Z,20.42
2017-03-23T10:34:42.065Z,20.03
2017-03-23T10:35:42.683Z,19.88
2017-03-23T10:36:43.324Z,20.03
2017-03-23T10:37:43.968Z,20.22
2017-03-23T10:38:44.609Z,19.99
2017-03-23T10:39:45.240Z,19.84
2017-03-23T10:40:45.883Z,19.66
2017-03-23T10:41:46.507Z,19.77
2017-03-23T10:42:47.133Z,19.41
2017-03-23T10:43:47.773Z,18.93
2017-03-23T10:44:48.405Z,19.15
2017-03-23T10:45:49.047Z,19.29
2017-03-23T10:46:49.681Z,19.06
2017-03-23T10:47:50.317Z,19.15
2017-03-23T10:48:50.964Z,19.30
2017-03-23T10:49:51.594Z,19.37
2017-03-23T10:50:52.281Z,19.55
2017-03-23T10:51:52.869Z,19.73
2017-03-23T10:52:53.499Z,20.04
2017-03-23T10:53:54.135Z,19.71
2017-03-23T10:54:54.782Z,19.99
2017-03-23T10:55:55.411Z,20.26
2017-03-23T10:56:56.047Z,20.52
2017-03-23T10:57:56.682Z,20.42
2017-03-23T10:58:57.307Z,20.67
2017-03-23T10:59:57.945Z,20.78
2017-03-23T11:00:58.587Z,20.70
2017-03-23T11:01:59.227Z,20.17
2017-03-23T11:03:00.113Z,20.17
2017-03-23T11:04:00.820Z,20.32
2017-03-23T11:05:01.619Z,20.25
2017-03-23T11:06:02.245Z,20.39
2017-03-23T11:07:02.884Z,20.62
2017-03-23T11:08:03.533Z,20.62
2017-03-23T11:09:04.165Z,20.22
2017-03-23T11:10:04.796Z,20.26
2017-03-23T11:11:05.441Z,20.21
2017-03-23T11:12:06.088Z,20.29
2017-03-23T11:13:06.712Z,20.26
2017-03-23T11:14:07.360Z,20.52
2017-03-23T11:15:07.987Z,20.96
2017-03-23T11:16:08.611Z,20.92
2017-03-23T11:17:09.262Z,21.22
2017-03-23T11:18:09.896Z,21.47
2017-03-23T11:19:10.732Z,21.47
2017-03-23T11:20:11.397Z,21.35
2017-03-23T11:21:12.041Z,21.30
2017-03-23T11:22:12.682Z,20.78
2017-03-23T11:23:13.310Z,20.65
2017-03-23T11:24:13.950Z,20.16
2017-03-23T11:25:14.588Z,19.99
2017-03-23T11:26:15.225Z,19.47
2017-03-23T11:27:15.850Z,19.41
2017-03-23T11:28:16.487Z,19.61
2017-03-23T11:29:17.131Z,19.70
2017-03-23T11:30:17.770Z,19.64
2017-03-23T11:31:18.394Z,19.80
2017-03-23T11:32:19.044Z,19.73
2017-03-23T11:33:19.671Z,19.69
2017-03-23T11:34:20.310Z,19.61
2017-03-23T11:35:20.938Z,19.49
2017-03-23T11:36:21.578Z,19.84
2017-03-23T11:37:22.209Z,19.64
2017-03-23T11:38:22.848Z,19.70
2017-03-23T11:39:23.479Z,19.66
2017-03-23T11:40:24.105Z,19.59
2017-03-23T11:41:24.747Z,19.06
2017-03-23T11:42:25.382Z,18.84
2017-03-23T11:43:26.008Z,18.80
2017-03-23T11:44:26.653Z,18.90
2017-03-23T11:45:27.283Z,18.80
2017-03-23T11:46:27.920Z,18.63
2017-03-23T11:47:28.551Z,18.62
2017-03-23T11:48:29.394Z,18.40
2017-03-23T11:49:30.022Z,18.14
2017-03-23T11:50:30.661Z,17.86
2017-03-23T11:51:31.290Z,17.68
2017-03-23T11:52:31.931Z,17.83
2017-03-23T11:53:32.570Z,17.86
2017-03-23T11:54:33.194Z,17.65
2017-03-23T11:55:33.822Z,17.63
2017-03-23T11:56:34.461Z,17.45
2017-03-23T11:57:35.088Z,17.34
2017-03-23T11:58:35.713Z,17.14
2017-03-23T11:59:36.348Z,17.01
2017-03-23T12:00:36.971Z,16.89
2017-03-23T12:01:37.614Z,16.86
2017-03-23T12:02:38.224Z,16.51
2017-03-23T12:03:38.852Z,16.25
2017-03-23T12:04:39.495Z,16.13
2017-03-23T12:05:40.117Z,16.05
2017-03-23T12:06:40.944Z,16.01
2017-03-23T12:07:41.569Z,15.87
2017-03-23T12:08:42.202Z,15.80
2017-03-23T12:09:42.830Z,15.62
2017-03-23T12:10:43.467Z,15.65
2017-03-23T12:11:44.077Z,15.57
2017-03-23T12:12:44.704Z,15.54
2017-03-23T12:13:45.578Z,15.44
2017-03-23T12:14:46.403Z,15.49
2017-03-23T12:15:47.030Z,15.34
2017-03-23T12:16:47.666Z,15.42
2017-03-23T12:17:48.287Z,15.28
2017-03-23T12:18:49.129Z,15.31
2017-03-23T12:19:49.757Z,15.26
2017-03-23T12:20:50.376Z,15.22
2017-03-23T12:21:50.987Z,15.13
2017-03-23T12:22:51.625Z,15.21
2017-03-23T12:23:52.258Z,15.10
2017-03-23T12:24:52.883Z,15.28
2017-03-23T12:25:53.498Z,15.18
2017-03-23T12:26:54.124Z,15.18
2017-03-23T12:27:54.756Z,15.21
2017-03-23T12:28:55.374Z,15.18
2017-03-23T12:29:56.004Z,15.28
2017-03-23T12:30:56.632Z,15.18
2017-03-23T12:31:57.249Z,15.04
2017-03-23T12:32:57.865Z,15.09
2017-03-23T12:33:58.485Z,15.22
2017-03-23T12:34:59.115Z,15.21
2017-03-23T12:35:59.741Z,15.17
2017-03-23T12:37:00.404Z,15.22
2017-03-23T12:38:01.050Z,15.28
2017-03-23T12:39:01.665Z,15.18
2017-03-23T12:40:02.293Z,15.26
2017-03-23T12:41:02.923Z,15.28
2017-03-23T12:42:03.553Z,15.18
2017-03-23T12:43:04.185Z,15.14
2017-03-23T12:44:04.817Z,15.25
2017-03-23T12:45:05.433Z,15.25
2017-03-23T12:46:06.067Z,15.14
2017-03-23T12:47:06.678Z,15.34
2017-03-23T12:48:07.295Z,15.31
2017-03-23T12:49:07.929Z,15.22
2017-03-23T12:50:08.549Z,15.21
2017-03-23T12:51:09.177Z,15.19
2017-03-23T12:52:09.812Z,15.19
2017-03-23T12:53:10.429Z,15.34
2017-03-23T12:54:11.056Z,15.24
2017-03-23T12:55:11.688Z,15.28
2017-03-23T12:56:12.314Z,15.31
2017-03-23T12:57:12.933Z,15.31
2017-03-23T12:58:13.778Z,15.28
2017-03-23T12:59:14.389Z,15.19
2017-03-23T13:00:15.023Z,15.21
2017-03-23T13:01:15.642Z,15.26
2017-03-23T13:02:16.268Z,15.17
2017-03-23T13:03:17.082Z,15.13
2017-03-23T13:04:17.968Z,15.22
2017-03-23T13:05:18.586Z,15.21
2017-03-23T13:06:19.214Z,15.21
2017-03-23T13:07:19.857Z,15.14
2017-03-23T13:08:20.474Z,15.13
2017-03-23T13:09:21.109Z,15.06
2017-03-23T13:10:21.717Z,15.07
2017-03-23T13:11:22.335Z,15.03
2017-03-23T13:12:22.967Z,15.06
2017-03-23T13:13:23.604Z,15.14
2017-03-23T13:14:24.478Z,15.26
2017-03-23T13:15:25.103Z,15.24